sensor_id;sensor_type;location;lat;lon;timestamp;temperature;humidity
41592;DHT22;28026;48.562;14.440;2022-07-29T00:00:37;18.40;99.90
41592;DHT22;28026;48.562;14.440;2022-07-29T00:03:08;18.30;99.90
41592;DHT22;28026;48.562;14.440;2022-07-29T00:05:40;18.20;99.90
41592;DHT22;28026;48.562;14.440;2022-07-29T00:08:11;18.10;99.90
41592;DHT22;28026;48.562;14.440;2022-07-29T00:10:42;18.10;99.90
41592;DHT22;28026;48.562;14.440;2022-07-29T00:13:13;18.10;99.90
41592;DHT22;28026;48.562;14.440;2022-07-29T00:15:45;18.10;99.90
41592;DHT22;28026;48.562;14.440;2022-07-29T00:18:16;17.90;99.90
41592;DHT22;28026;48.562;14.440;2022-07-29T00:20:46;18.00;99.90
41592;DHT22;28026;48.562;14.440;2022-07-29T00:23:17;18.00;99.90
41592;DHT22;28026;48.562;14.440;2022-07-29T00:25:48;18.00;99.90
41592;DHT22;28026;48.562;14.440;2022-07-29T00:28:19;18.00;99.90
41592;DHT22;28026;48.562;14.440;2022-07-29T00:30:50;18.00;99.90
41592;DHT22;28026;48.562;14.440;2022-07-29T00:33:21;17.90;99.90
41592;DHT22;28026;48.562;14.440;2022-07-29T00:35:53;18.00;99.90
41592;DHT22;28026;48.562;14.440;2022-07-29T00:38:24;17.90;99.90
41592;DHT22;28026;48.562;14.440;2022-07-29T00:40:55;17.80;99.90
41592;DHT22;28026;48.562;14.440;2022-07-29T00:43:26;17.70;99.90
41592;DHT22;28026;48.562;14.440;2022-07-29T00:45:57;17.70;99.90
41592;DHT22;28026;48.562;14.440;2022-07-29T00:48:28;17.60;99.90
41592;DHT22;28026;48.562;14.440;2022-07-29T00:51:02;17.50;99.90
41592;DHT22;28026;48.562;14.440;2022-07-29T00:53:35;17.40;99.90
41592;DHT22;28026;48.562;14.440;2022-07-29T00:56:07;17.40;99.90
41592;DHT22;28026;48.562;14.440;2022-07-29T00:58:38;17.40;99.90
41592;DHT22;28026;48.562;14.440;2022-07-29T01:01:10;17.40;99.90
41592;DHT22;28026;48.562;14.440;2022-07-29T01:03:41;17.50;99.90
41592;DHT22;28026;48.562;14.440;2022-07-29T01:06:12;17.50;99.90
41592;DHT22;28026;48.562;14.440;2022-07-29T01:08:45;17.30;99.90
41592;DHT22;28026;48.562;14.440;2022-07-29T01:11:19;17.30;99.90
41592;DHT22;28026;48.562;14.440;2022-07-29T01:13:51;17.30;99.90
41592;DHT22;28026;48.562;14.440;2022-07-29T01:16:40;17.30;99.90
41592;DHT22;28026;48.562;14.440;2022-07-29T01:32:26;17.10;99.90
41592;DHT22;28026;48.562;14.440;2022-07-29T01:38:01;17.00;99.90
41592;DHT22;28026;48.562;14.440;2022-07-29T01:40:43;17.00;99.90
41592;DHT22;28026;48.562;14.440;2022-07-29T01:43:29;17.00;99.90
41592;DHT22;28026;48.562;14.440;2022-07-29T01:46:14;17.00;99.90
41592;DHT22;28026;48.562;14.440;2022-07-29T01:49:02;16.90;99.90
41592;DHT22;28026;48.562;14.440;2022-07-29T01:51:46;16.80;99.90
41592;DHT22;28026;48.562;14.440;2022-07-29T01:57:14;16.80;99.90
41592;DHT22;28026;48.562;14.440;2022-07-29T01:59:51;16.90;99.90
41592;DHT22;28026;48.562;14.440;2022-07-29T02:02:26;16.90;99.90
41592;DHT22;28026;48.562;14.440;2022-07-29T02:05:02;16.90;99.90
41592;DHT22;28026;48.562;14.440;2022-07-29T02:07:37;16.90;99.90
41592;DHT22;28026;48.562;14.440;2022-07-29T02:10:14;16.90;99.90
41592;DHT22;28026;48.562;14.440;2022-07-29T02:12:51;16.90;99.90
41592;DHT22;28026;48.562;14.440;2022-07-29T02:15:28;16.80;99.90
41592;DHT22;28026;48.562;14.440;2022-07-29T02:18:17;16.80;99.90
41592;DHT22;28026;48.562;14.440;2022-07-29T02:20:54;16.80;99.90
41592;DHT22;28026;48.562;14.440;2022-07-29T02:23:31;16.80;99.90
41592;DHT22;28026;48.562;14.440;2022-07-29T02:26:09;16.80;99.90
41592;DHT22;28026;48.562;14.440;2022-07-29T02:28:41;16.80;99.90
41592;DHT22;28026;48.562;14.440;2022-07-29T02:31:13;16.80;99.90
41592;DHT22;28026;48.562;14.440;2022-07-29T02:33:49;16.90;99.90
41592;DHT22;28026;48.562;14.440;2022-07-29T02:36:24;16.80;99.90
41592;DHT22;28026;48.562;14.440;2022-07-29T02:38:59;16.90;99.90
41592;DHT22;28026;48.562;14.440;2022-07-29T02:41:42;16.90;99.90
41592;DHT22;28026;48.562;14.440;2022-07-29T02:44:20;16.90;99.90
41592;DHT22;28026;48.562;14.440;2022-07-29T02:47:09;16.90;99.90
41592;DHT22;28026;48.562;14.440;2022-07-29T02:58:59;16.40;99.90
41592;DHT22;28026;48.562;14.440;2022-07-29T03:01:39;16.50;99.90
41592;DHT22;28026;48.562;14.440;2022-07-29T03:04:15;16.60;99.90
41592;DHT22;28026;48.562;14.440;2022-07-29T03:06:51;16.60;99.90
41592;DHT22;28026;48.562;14.440;2022-07-29T03:09:24;16.50;99.90
41592;DHT22;28026;48.562;14.440;2022-07-29T03:11:57;16.50;99.90
41592;DHT22;28026;48.562;14.440;2022-07-29T03:14:29;16.50;99.90
41592;DHT22;28026;48.562;14.440;2022-07-29T03:17:01;16.40;99.90
41592;DHT22;28026;48.562;14.440;2022-07-29T03:19:33;16.50;99.90
41592;DHT22;28026;48.562;14.440;2022-07-29T03:22:04;16.50;99.90
41592;DHT22;28026;48.562;14.440;2022-07-29T03:24:36;16.60;99.90
41592;DHT22;28026;48.562;14.440;2022-07-29T03:27:08;16.60;99.90
41592;DHT22;28026;48.562;14.440;2022-07-29T03:29:39;16.50;99.90
41592;DHT22;28026;48.562;14.440;2022-07-29T03:32:10;16.40;99.90
41592;DHT22;28026;48.562;14.440;2022-07-29T03:34:41;16.30;99.90
41592;DHT22;28026;48.562;14.440;2022-07-29T03:37:12;16.40;99.90
41592;DHT22;28026;48.562;14.440;2022-07-29T03:39:44;16.60;99.90
41592;DHT22;28026;48.562;14.440;2022-07-29T03:42:18;16.70;99.90
41592;DHT22;28026;48.562;14.440;2022-07-29T03:44:54;16.70;99.90
41592;DHT22;28026;48.562;14.440;2022-07-29T03:47:28;16.70;99.90
41592;DHT22;28026;48.562;14.440;2022-07-29T03:50:06;16.70;99.90
41592;DHT22;28026;48.562;14.440;2022-07-29T03:52:42;16.60;99.90
41592;DHT22;28026;48.562;14.440;2022-07-29T03:55:14;16.60;99.90
41592;DHT22;28026;48.562;14.440;2022-07-29T03:57:48;16.60;99.90
41592;DHT22;28026;48.562;14.440;2022-07-29T04:00:22;16.50;99.90
41592;DHT22;28026;48.562;14.440;2022-07-29T04:02:56;16.60;99.90
41592;DHT22;28026;48.562;14.440;2022-07-29T04:05:27;16.60;99.90
41592;DHT22;28026;48.562;14.440;2022-07-29T04:07:58;16.70;99.90
41592;DHT22;28026;48.562;14.440;2022-07-29T04:10:30;16.80;99.90
41592;DHT22;28026;48.562;14.440;2022-07-29T04:13:01;16.80;99.90
41592;DHT22;28026;48.562;14.440;2022-07-29T04:15:32;16.80;99.90
41592;DHT22;28026;48.562;14.440;2022-07-29T04:18:03;16.80;99.90
41592;DHT22;28026;48.562;14.440;2022-07-29T04:20:34;16.80;99.90
41592;DHT22;28026;48.562;14.440;2022-07-29T04:23:04;16.80;99.90
41592;DHT22;28026;48.562;14.440;2022-07-29T04:25:39;16.90;99.90
41592;DHT22;28026;48.562;14.440;2022-07-29T04:28:12;16.90;99.90
41592;DHT22;28026;48.562;14.440;2022-07-29T04:30:43;16.90;99.90
41592;DHT22;28026;48.562;14.440;2022-07-29T04:33:14;16.90;99.90
41592;DHT22;28026;48.562;14.440;2022-07-29T04:35:45;16.70;99.90
41592;DHT22;28026;48.562;14.440;2022-07-29T04:38:16;16.70;99.90
41592;DHT22;28026;48.562;14.440;2022-07-29T04:40:47;16.70;99.90
41592;DHT22;28026;48.562;14.440;2022-07-29T04:43:18;16.90;99.90
41592;DHT22;28026;48.562;14.440;2022-07-29T04:45:49;16.90;99.90
41592;DHT22;28026;48.562;14.440;2022-07-29T04:48:20;17.00;99.90
41592;DHT22;28026;48.562;14.440;2022-07-29T04:50:51;17.20;99.90
41592;DHT22;28026;48.562;14.440;2022-07-29T04:53:23;17.20;99.90
41592;DHT22;28026;48.562;14.440;2022-07-29T04:55:55;17.20;99.90
41592;DHT22;28026;48.562;14.440;2022-07-29T04:58:26;17.00;99.90
41592;DHT22;28026;48.562;14.440;2022-07-29T05:00:57;16.60;99.90
41592;DHT22;28026;48.562;14.440;2022-07-29T05:03:27;16.20;99.90
41592;DHT22;28026;48.562;14.440;2022-07-29T05:05:58;16.10;99.90
41592;DHT22;28026;48.562;14.440;2022-07-29T05:08:29;16.10;99.90
41592;DHT22;28026;48.562;14.440;2022-07-29T05:11:00;16.20;99.90
41592;DHT22;28026;48.562;14.440;2022-07-29T05:13:31;16.30;99.90
41592;DHT22;28026;48.562;14.440;2022-07-29T05:16:03;16.30;99.90
41592;DHT22;28026;48.562;14.440;2022-07-29T05:18:34;16.50;99.90
41592;DHT22;28026;48.562;14.440;2022-07-29T05:21:05;16.70;99.90
41592;DHT22;28026;48.562;14.440;2022-07-29T05:23:36;16.80;99.90
41592;DHT22;28026;48.562;14.440;2022-07-29T05:26:07;16.90;99.90
41592;DHT22;28026;48.562;14.440;2022-07-29T05:28:38;17.00;99.90
41592;DHT22;28026;48.562;14.440;2022-07-29T05:31:09;17.10;99.90
41592;DHT22;28026;48.562;14.440;2022-07-29T05:33:40;17.30;99.90
41592;DHT22;28026;48.562;14.440;2022-07-29T05:36:12;17.40;99.90
41592;DHT22;28026;48.562;14.440;2022-07-29T05:38:43;17.60;99.90
41592;DHT22;28026;48.562;14.440;2022-07-29T05:41:14;17.50;99.90
41592;DHT22;28026;48.562;14.440;2022-07-29T05:43:45;17.60;99.90
41592;DHT22;28026;48.562;14.440;2022-07-29T05:46:16;17.60;99.90
41592;DHT22;28026;48.562;14.440;2022-07-29T05:48:47;17.70;99.90
41592;DHT22;28026;48.562;14.440;2022-07-29T05:51:18;17.70;99.90
41592;DHT22;28026;48.562;14.440;2022-07-29T05:53:49;17.70;99.90
41592;DHT22;28026;48.562;14.440;2022-07-29T05:56:20;17.80;99.90
41592;DHT22;28026;48.562;14.440;2022-07-29T05:58:52;17.60;99.90
41592;DHT22;28026;48.562;14.440;2022-07-29T06:01:23;17.40;99.90
41592;DHT22;28026;48.562;14.440;2022-07-29T06:03:54;17.40;99.90
41592;DHT22;28026;48.562;14.440;2022-07-29T06:06:25;17.40;99.90
41592;DHT22;28026;48.562;14.440;2022-07-29T06:08:56;17.40;99.90
41592;DHT22;28026;48.562;14.440;2022-07-29T06:11:27;17.30;99.90
41592;DHT22;28026;48.562;14.440;2022-07-29T06:13:58;17.00;99.90
41592;DHT22;28026;48.562;14.440;2022-07-29T06:16:29;17.00;99.90
41592;DHT22;28026;48.562;14.440;2022-07-29T06:19:00;17.30;99.90
41592;DHT22;28026;48.562;14.440;2022-07-29T06:21:31;17.60;99.90
41592;DHT22;28026;48.562;14.440;2022-07-29T06:24:02;17.90;99.90
41592;DHT22;28026;48.562;14.440;2022-07-29T06:26:34;18.10;99.90
41592;DHT22;28026;48.562;14.440;2022-07-29T06:29:06;18.00;99.90
41592;DHT22;28026;48.562;14.440;2022-07-29T06:31:38;18.10;99.90
41592;DHT22;28026;48.562;14.440;2022-07-29T06:34:09;18.20;99.90
41592;DHT22;28026;48.562;14.440;2022-07-29T06:36:40;18.40;99.90
41592;DHT22;28026;48.562;14.440;2022-07-29T06:39:11;18.50;99.90
41592;DHT22;28026;48.562;14.440;2022-07-29T06:41:47;18.40;99.90
41592;DHT22;28026;48.562;14.440;2022-07-29T06:44:21;18.40;99.90
41592;DHT22;28026;48.562;14.440;2022-07-29T06:46:52;18.40;99.90
41592;DHT22;28026;48.562;14.440;2022-07-29T06:49:25;18.40;99.90
41592;DHT22;28026;48.562;14.440;2022-07-29T06:51:56;18.50;99.90
41592;DHT22;28026;48.562;14.440;2022-07-29T06:54:27;18.50;99.90
41592;DHT22;28026;48.562;14.440;2022-07-29T06:56:58;18.60;99.90
41592;DHT22;28026;48.562;14.440;2022-07-29T06:59:29;18.80;99.90
41592;DHT22;28026;48.562;14.440;2022-07-29T07:02:00;18.80;99.90
41592;DHT22;28026;48.562;14.440;2022-07-29T07:04:31;18.80;99.90
41592;DHT22;28026;48.562;14.440;2022-07-29T07:07:02;18.70;99.90
41592;DHT22;28026;48.562;14.440;2022-07-29T07:09:33;18.60;99.90
41592;DHT22;28026;48.562;14.440;2022-07-29T07:12:04;18.70;99.90
41592;DHT22;28026;48.562;14.440;2022-07-29T07:14:36;18.70;99.90
41592;DHT22;28026;48.562;14.440;2022-07-29T07:17:07;18.60;99.90
41592;DHT22;28026;48.562;14.440;2022-07-29T07:19:38;18.60;99.90
41592;DHT22;28026;48.562;14.440;2022-07-29T07:22:09;18.60;99.90
41592;DHT22;28026;48.562;14.440;2022-07-29T07:24:40;18.50;99.90
41592;DHT22;28026;48.562;14.440;2022-07-29T07:27:10;18.60;99.90
41592;DHT22;28026;48.562;14.440;2022-07-29T07:29:41;18.90;99.90
41592;DHT22;28026;48.562;14.440;2022-07-29T07:32:12;19.10;99.90
41592;DHT22;28026;48.562;14.440;2022-07-29T07:34:46;19.40;99.90
41592;DHT22;28026;48.562;14.440;2022-07-29T07:37:17;19.60;99.90
41592;DHT22;28026;48.562;14.440;2022-07-29T07:39:51;19.60;99.90
41592;DHT22;28026;48.562;14.440;2022-07-29T07:42:23;19.60;99.90
41592;DHT22;28026;48.562;14.440;2022-07-29T07:44:55;19.70;99.90
41592;DHT22;28026;48.562;14.440;2022-07-29T07:47:26;19.90;99.90
41592;DHT22;28026;48.562;14.440;2022-07-29T07:49:57;19.90;99.90
41592;DHT22;28026;48.562;14.440;2022-07-29T07:52:28;20.00;99.90
41592;DHT22;28026;48.562;14.440;2022-07-29T07:54:59;20.30;99.90
41592;DHT22;28026;48.562;14.440;2022-07-29T07:57:31;20.40;99.90
41592;DHT22;28026;48.562;14.440;2022-07-29T08:00:03;20.40;99.90
41592;DHT22;28026;48.562;14.440;2022-07-29T08:02:34;20.60;99.90
41592;DHT22;28026;48.562;14.440;2022-07-29T08:05:06;20.90;99.90
41592;DHT22;28026;48.562;14.440;2022-07-29T08:07:38;20.90;99.90
41592;DHT22;28026;48.562;14.440;2022-07-29T08:10:09;20.80;99.90
41592;DHT22;28026;48.562;14.440;2022-07-29T08:12:40;20.70;99.90
41592;DHT22;28026;48.562;14.440;2022-07-29T08:15:11;20.50;99.90
41592;DHT22;28026;48.562;14.440;2022-07-29T08:17:42;20.60;99.90
41592;DHT22;28026;48.562;14.440;2022-07-29T08:20:13;20.70;99.90
41592;DHT22;28026;48.562;14.440;2022-07-29T08:22:44;20.70;99.90
41592;DHT22;28026;48.562;14.440;2022-07-29T08:25:15;20.60;99.90
41592;DHT22;28026;48.562;14.440;2022-07-29T08:27:48;20.60;99.90
41592;DHT22;28026;48.562;14.440;2022-07-29T08:30:19;20.50;99.90
41592;DHT22;28026;48.562;14.440;2022-07-29T08:32:50;20.50;99.90
41592;DHT22;28026;48.562;14.440;2022-07-29T08:35:23;20.60;99.90
41592;DHT22;28026;48.562;14.440;2022-07-29T08:37:55;20.40;99.90
41592;DHT22;28026;48.562;14.440;2022-07-29T08:40:27;20.50;99.90
41592;DHT22;28026;48.562;14.440;2022-07-29T08:43:08;20.40;99.90
41592;DHT22;28026;48.562;14.440;2022-07-29T08:45:48;20.60;99.90
41592;DHT22;28026;48.562;14.440;2022-07-29T08:48:22;20.60;99.90
41592;DHT22;28026;48.562;14.440;2022-07-29T08:50:56;20.80;99.90
41592;DHT22;28026;48.562;14.440;2022-07-29T08:53:28;21.00;99.90
41592;DHT22;28026;48.562;14.440;2022-07-29T08:56:00;21.00;99.90
41592;DHT22;28026;48.562;14.440;2022-07-29T08:58:33;20.90;99.90
41592;DHT22;28026;48.562;14.440;2022-07-29T09:01:04;21.00;99.90
41592;DHT22;28026;48.562;14.440;2022-07-29T09:03:38;21.00;99.90
41592;DHT22;28026;48.562;14.440;2022-07-29T09:06:14;21.10;99.90
41592;DHT22;28026;48.562;14.440;2022-07-29T09:08:48;21.00;99.90
41592;DHT22;28026;48.562;14.440;2022-07-29T09:11:19;21.00;99.90
41592;DHT22;28026;48.562;14.440;2022-07-29T09:13:51;21.00;99.90
41592;DHT22;28026;48.562;14.440;2022-07-29T09:16:22;20.90;99.90
41592;DHT22;28026;48.562;14.440;2022-07-29T09:18:53;21.10;99.90
41592;DHT22;28026;48.562;14.440;2022-07-29T09:21:24;21.40;99.90
41592;DHT22;28026;48.562;14.440;2022-07-29T09:24:14;21.60;99.90
41592;DHT22;28026;48.562;14.440;2022-07-29T09:26:45;21.50;99.90
41592;DHT22;28026;48.562;14.440;2022-07-29T09:29:22;21.90;99.90
41592;DHT22;28026;48.562;14.440;2022-07-29T09:31:55;22.40;99.90
41592;DHT22;28026;48.562;14.440;2022-07-29T09:34:28;22.90;99.90
41592;DHT22;28026;48.562;14.440;2022-07-29T09:37:02;23.00;99.90
41592;DHT22;28026;48.562;14.440;2022-07-29T09:39:36;23.20;99.90
41592;DHT22;28026;48.562;14.440;2022-07-29T09:42:28;23.50;99.90
41592;DHT22;28026;48.562;14.440;2022-07-29T09:45:02;23.30;99.90
41592;DHT22;28026;48.562;14.440;2022-07-29T09:47:45;23.50;99.90
41592;DHT22;28026;48.562;14.440;2022-07-29T09:50:20;23.40;99.90
41592;DHT22;28026;48.562;14.440;2022-07-29T09:52:54;23.50;99.90
41592;DHT22;28026;48.562;14.440;2022-07-29T09:55:25;23.60;99.90
41592;DHT22;28026;48.562;14.440;2022-07-29T09:58:16;23.40;99.90
41592;DHT22;28026;48.562;14.440;2022-07-29T10:00:49;23.10;99.90
41592;DHT22;28026;48.562;14.440;2022-07-29T10:03:22;23.20;99.90
41592;DHT22;28026;48.562;14.440;2022-07-29T10:06:08;23.40;99.90
41592;DHT22;28026;48.562;14.440;2022-07-29T10:08:41;23.30;99.90
41592;DHT22;28026;48.562;14.440;2022-07-29T10:11:14;23.30;99.90
41592;DHT22;28026;48.562;14.440;2022-07-29T10:13:48;23.20;99.90
41592;DHT22;28026;48.562;14.440;2022-07-29T10:16:19;22.90;99.90
41592;DHT22;28026;48.562;14.440;2022-07-29T10:18:50;22.70;99.90
41592;DHT22;28026;48.562;14.440;2022-07-29T10:21:22;22.90;99.90
41592;DHT22;28026;48.562;14.440;2022-07-29T10:23:53;23.00;99.90
41592;DHT22;28026;48.562;14.440;2022-07-29T10:26:27;23.10;99.90
41592;DHT22;28026;48.562;14.440;2022-07-29T10:29:00;23.10;99.90
41592;DHT22;28026;48.562;14.440;2022-07-29T10:32:10;23.10;99.90
41592;DHT22;28026;48.562;14.440;2022-07-29T10:38:30;23.30;99.90
41592;DHT22;28026;48.562;14.440;2022-07-29T10:41:54;22.60;99.90
41592;DHT22;28026;48.562;14.440;2022-07-29T10:44:42;22.80;99.90
41592;DHT22;28026;48.562;14.440;2022-07-29T10:47:24;23.10;99.90
41592;DHT22;28026;48.562;14.440;2022-07-29T10:50:03;23.30;99.90
41592;DHT22;28026;48.562;14.440;2022-07-29T10:52:56;23.00;99.90
41592;DHT22;28026;48.562;14.440;2022-07-29T10:55:39;23.50;99.90
41592;DHT22;28026;48.562;14.440;2022-07-29T11:00:54;23.60;99.90
41592;DHT22;28026;48.562;14.440;2022-07-29T11:06:17;24.10;99.90
41592;DHT22;28026;48.562;14.440;2022-07-29T11:09:15;24.40;99.90
41592;DHT22;28026;48.562;14.440;2022-07-29T11:11:49;24.80;99.90
41592;DHT22;28026;48.562;14.440;2022-07-29T11:17:29;26.00;99.90
41592;DHT22;28026;48.562;14.440;2022-07-29T11:20:42;26.60;99.90
41592;DHT22;28026;48.562;14.440;2022-07-29T11:23:32;26.00;99.90
41592;DHT22;28026;48.562;14.440;2022-07-29T11:31:48;27.50;99.90
41592;DHT22;28026;48.562;14.440;2022-07-29T11:34:25;26.90;99.90
41592;DHT22;28026;48.562;14.440;2022-07-29T11:47:53;28.50;99.90
41592;DHT22;28026;48.562;14.440;2022-07-29T11:50:35;28.10;99.90
41592;DHT22;28026;48.562;14.440;2022-07-29T11:53:12;28.20;99.90
41592;DHT22;28026;48.562;14.440;2022-07-29T11:55:43;27.80;99.90
41592;DHT22;28026;48.562;14.440;2022-07-29T11:58:14;28.30;99.90
41592;DHT22;28026;48.562;14.440;2022-07-29T12:00:53;28.10;99.90
41592;DHT22;28026;48.562;14.440;2022-07-29T12:03:28;27.40;99.90
41592;DHT22;28026;48.562;14.440;2022-07-29T12:06:00;27.10;99.90
41592;DHT22;28026;48.562;14.440;2022-07-29T12:08:40;27.20;99.90
41592;DHT22;28026;48.562;14.440;2022-07-29T12:11:18;27.10;99.90
41592;DHT22;28026;48.562;14.440;2022-07-29T12:13:51;27.80;99.90
41592;DHT22;28026;48.562;14.440;2022-07-29T12:16:37;28.70;99.90
41592;DHT22;28026;48.562;14.440;2022-07-29T12:19:08;29.10;99.90
41592;DHT22;28026;48.562;14.440;2022-07-29T12:21:50;27.00;99.90
41592;DHT22;28026;48.562;14.440;2022-07-29T12:24:23;26.90;99.90
41592;DHT22;28026;48.562;14.440;2022-07-29T12:26:56;27.00;99.90
41592;DHT22;28026;48.562;14.440;2022-07-29T12:29:30;27.60;99.90
41592;DHT22;28026;48.562;14.440;2022-07-29T12:32:01;26.80;99.90
41592;DHT22;28026;48.562;14.440;2022-07-29T12:34:36;26.70;99.90
41592;DHT22;28026;48.562;14.440;2022-07-29T12:37:09;27.40;99.90
41592;DHT22;28026;48.562;14.440;2022-07-29T12:39:40;28.00;99.90
41592;DHT22;28026;48.562;14.440;2022-07-29T12:42:13;27.80;99.90
41592;DHT22;28026;48.562;14.440;2022-07-29T12:44:50;28.00;99.90
41592;DHT22;28026;48.562;14.440;2022-07-29T12:47:22;28.10;99.90
41592;DHT22;28026;48.562;14.440;2022-07-29T12:50:12;27.80;99.90
41592;DHT22;28026;48.562;14.440;2022-07-29T12:52:47;27.90;99.90
41592;DHT22;28026;48.562;14.440;2022-07-29T12:55:45;26.90;99.90
41592;DHT22;28026;48.562;14.440;2022-07-29T13:01:07;26.90;99.90
41592;DHT22;28026;48.562;14.440;2022-07-29T13:03:55;27.80;99.90
41592;DHT22;28026;48.562;14.440;2022-07-29T13:09:20;27.20;99.90
41592;DHT22;28026;48.562;14.440;2022-07-29T13:11:54;26.90;99.90
41592;DHT22;28026;48.562;14.440;2022-07-29T13:14:39;27.30;99.90
41592;DHT22;28026;48.562;14.440;2022-07-29T13:17:20;27.00;99.90
41592;DHT22;28026;48.562;14.440;2022-07-29T13:20:09;28.50;99.90
41592;DHT22;28026;48.562;14.440;2022-07-29T13:22:47;27.40;99.90
41592;DHT22;28026;48.562;14.440;2022-07-29T13:25:29;27.30;99.90
41592;DHT22;28026;48.562;14.440;2022-07-29T13:28:02;27.00;99.90
41592;DHT22;28026;48.562;14.440;2022-07-29T13:30:34;27.70;99.90
41592;DHT22;28026;48.562;14.440;2022-07-29T13:33:05;28.60;99.90
41592;DHT22;28026;48.562;14.440;2022-07-29T13:35:36;28.20;99.90
41592;DHT22;28026;48.562;14.440;2022-07-29T13:38:06;27.90;99.90
41592;DHT22;28026;48.562;14.440;2022-07-29T13:40:37;28.00;99.90
41592;DHT22;28026;48.562;14.440;2022-07-29T13:43:09;27.50;99.90
41592;DHT22;28026;48.562;14.440;2022-07-29T13:45:41;26.10;99.90
41592;DHT22;28026;48.562;14.440;2022-07-29T13:48:12;26.20;99.90
41592;DHT22;28026;48.562;14.440;2022-07-29T13:50:43;26.90;99.90
41592;DHT22;28026;48.562;14.440;2022-07-29T13:53:14;27.70;99.90
41592;DHT22;28026;48.562;14.440;2022-07-29T13:55:45;27.80;99.90
41592;DHT22;28026;48.562;14.440;2022-07-29T13:58:16;27.90;99.90
41592;DHT22;28026;48.562;14.440;2022-07-29T14:00:48;27.80;99.90
41592;DHT22;28026;48.562;14.440;2022-07-29T14:03:20;28.50;99.90
41592;DHT22;28026;48.562;14.440;2022-07-29T14:05:51;28.00;99.90
41592;DHT22;28026;48.562;14.440;2022-07-29T14:08:22;28.20;99.90
41592;DHT22;28026;48.562;14.440;2022-07-29T14:10:53;28.40;99.90
41592;DHT22;28026;48.562;14.440;2022-07-29T14:13:24;27.60;99.90
41592;DHT22;28026;48.562;14.440;2022-07-29T14:15:55;27.20;99.90
41592;DHT22;28026;48.562;14.440;2022-07-29T14:18:26;27.20;99.90
41592;DHT22;28026;48.562;14.440;2022-07-29T14:20:57;26.80;99.90
41592;DHT22;28026;48.562;14.440;2022-07-29T14:23:28;27.60;99.90
41592;DHT22;28026;48.562;14.440;2022-07-29T14:25:59;28.40;99.90
41592;DHT22;28026;48.562;14.440;2022-07-29T14:28:30;28.60;99.90
41592;DHT22;28026;48.562;14.440;2022-07-29T14:31:02;28.50;99.90
41592;DHT22;28026;48.562;14.440;2022-07-29T14:33:33;29.10;99.90
41592;DHT22;28026;48.562;14.440;2022-07-29T14:36:04;29.30;99.90
41592;DHT22;28026;48.562;14.440;2022-07-29T14:38:35;29.10;99.90
41592;DHT22;28026;48.562;14.440;2022-07-29T14:41:07;28.70;99.90
41592;DHT22;28026;48.562;14.440;2022-07-29T14:43:38;29.20;99.90
41592;DHT22;28026;48.562;14.440;2022-07-29T14:46:09;27.60;99.90
41592;DHT22;28026;48.562;14.440;2022-07-29T14:48:40;27.50;99.90
41592;DHT22;28026;48.562;14.440;2022-07-29T14:51:11;27.20;99.90
41592;DHT22;28026;48.562;14.440;2022-07-29T14:53:42;27.40;99.90
41592;DHT22;28026;48.562;14.440;2022-07-29T14:56:13;27.50;99.90
41592;DHT22;28026;48.562;14.440;2022-07-29T14:58:44;27.70;99.90
41592;DHT22;28026;48.562;14.440;2022-07-29T15:01:15;28.00;99.90
41592;DHT22;28026;48.562;14.440;2022-07-29T15:03:46;27.30;99.90
41592;DHT22;28026;48.562;14.440;2022-07-29T15:06:17;27.20;99.90
41592;DHT22;28026;48.562;14.440;2022-07-29T15:08:48;27.20;99.90
41592;DHT22;28026;48.562;14.440;2022-07-29T15:11:19;27.20;99.90
41592;DHT22;28026;48.562;14.440;2022-07-29T15:13:50;27.60;99.60
41592;DHT22;28026;48.562;14.440;2022-07-29T15:16:21;27.50;99.70
41592;DHT22;28026;48.562;14.440;2022-07-29T15:18:52;27.70;99.90
41592;DHT22;28026;48.562;14.440;2022-07-29T15:21:23;27.60;99.90
41592;DHT22;28026;48.562;14.440;2022-07-29T15:23:54;26.90;99.90
41592;DHT22;28026;48.562;14.440;2022-07-29T15:26:25;27.10;99.90
41592;DHT22;28026;48.562;14.440;2022-07-29T15:28:56;27.40;99.90
41592;DHT22;28026;48.562;14.440;2022-07-29T15:31:27;27.70;99.90
41592;DHT22;28026;48.562;14.440;2022-07-29T15:33:58;28.00;99.90
41592;DHT22;28026;48.562;14.440;2022-07-29T15:36:29;28.20;99.90
41592;DHT22;28026;48.562;14.440;2022-07-29T15:39:00;27.50;99.90
41592;DHT22;28026;48.562;14.440;2022-07-29T15:41:32;26.50;99.90
41592;DHT22;28026;48.562;14.440;2022-07-29T15:44:04;26.00;99.90
41592;DHT22;28026;48.562;14.440;2022-07-29T15:46:35;26.10;99.90
41592;DHT22;28026;48.562;14.440;2022-07-29T15:49:24;26.30;99.90
41592;DHT22;28026;48.562;14.440;2022-07-29T15:52:02;26.10;99.90
41592;DHT22;28026;48.562;14.440;2022-07-29T15:54:38;26.40;99.90
41592;DHT22;28026;48.562;14.440;2022-07-29T15:57:10;27.00;99.90
41592;DHT22;28026;48.562;14.440;2022-07-29T15:59:42;27.70;99.90
41592;DHT22;28026;48.562;14.440;2022-07-29T16:02:13;28.30;99.80
41592;DHT22;28026;48.562;14.440;2022-07-29T16:04:44;29.00;99.40
41592;DHT22;28026;48.562;14.440;2022-07-29T16:07:15;29.20;99.40
41592;DHT22;28026;48.562;14.440;2022-07-29T16:09:46;29.30;99.70
41592;DHT22;28026;48.562;14.440;2022-07-29T16:12:17;29.00;98.90
41592;DHT22;28026;48.562;14.440;2022-07-29T16:14:49;28.60;99.50
41592;DHT22;28026;48.562;14.440;2022-07-29T16:17:20;27.90;98.90
41592;DHT22;28026;48.562;14.440;2022-07-29T16:19:51;28.10;99.40
41592;DHT22;28026;48.562;14.440;2022-07-29T16:22:22;27.30;99.90
41592;DHT22;28026;48.562;14.440;2022-07-29T16:24:53;27.10;99.90
41592;DHT22;28026;48.562;14.440;2022-07-29T16:27:24;27.60;99.90
41592;DHT22;28026;48.562;14.440;2022-07-29T16:29:57;27.30;99.90
41592;DHT22;28026;48.562;14.440;2022-07-29T16:32:29;27.60;99.90
41592;DHT22;28026;48.562;14.440;2022-07-29T16:35:00;27.50;99.90
41592;DHT22;28026;48.562;14.440;2022-07-29T16:37:33;27.10;99.90
41592;DHT22;28026;48.562;14.440;2022-07-29T16:40:06;27.30;99.90
41592;DHT22;28026;48.562;14.440;2022-07-29T16:42:38;27.20;99.90
41592;DHT22;28026;48.562;14.440;2022-07-29T16:45:10;27.10;99.90
41592;DHT22;28026;48.562;14.440;2022-07-29T16:47:41;26.80;99.90
41592;DHT22;28026;48.562;14.440;2022-07-29T16:50:12;26.90;99.90
41592;DHT22;28026;48.562;14.440;2022-07-29T16:52:43;26.80;99.90
41592;DHT22;28026;48.562;14.440;2022-07-29T16:55:14;26.90;99.90
41592;DHT22;28026;48.562;14.440;2022-07-29T16:57:45;26.80;99.90